LESS weather

Sotos Airport
Sotos, Castilla-La Mancha, Spain

Public forecast

Using degrees Celsius for public forecast. Weather courtesy of forecast.io.

Closest aviation weather report (METAR) to Sotos Airport

Closest report is Teruel Airport, 44.0 nm (81.5 km) ENE. Retrieved 2019/10/21 09:30 UTC (0 seconds ago):

LETL 210930Z AUTO 01004KT 340V060 9999 BKN025 07/03 Q1019

Closest aviation forecast (TAF) to Sotos Airport

Closest forecast is Torrej√≥n Airport, 62.1 nm (115.0 km) WNW. Retrieved 2019/10/21 06:27 UTC (3 hours ago):

TAF LETO 210500Z 2106/2206 VRB05KT CAVOK TX16/2115Z TN03/2106Z PROB40 TEMPO 2112/2119 FEW030TCU